createdAt,value
2022-10-03T00:01:43.269Z,2.20
2022-10-03T00:04:39.830Z,2.40
2022-10-03T00:07:24.001Z,1.60
2022-10-03T00:10:11.864Z,1.77
2022-10-03T00:12:59.735Z,1.65
2022-10-03T00:15:36.567Z,1.67
2022-10-03T00:18:20.996Z,1.90
2022-10-03T00:21:18.355Z,1.55
2022-10-03T00:23:57.623Z,1.67
2022-10-03T00:26:41.558Z,1.60
2022-10-03T00:29:43.142Z,1.63
2022-10-03T00:32:34.065Z,1.50
2022-10-03T00:35:24.282Z,2.05
2022-10-03T00:38:18.701Z,1.33
2022-10-03T00:41:18.375Z,1.50
2022-10-03T00:44:45.708Z,1.70
2022-10-03T00:48:05.523Z,1.60
2022-10-03T00:50:59.152Z,1.50
2022-10-03T00:53:50.301Z,2.10
2022-10-03T00:56:50.007Z,1.80
2022-10-03T00:59:39.350Z,2.20
2022-10-03T01:02:38.106Z,1.95
2022-10-03T01:05:20.637Z,2.40
2022-10-03T01:08:28.858Z,1.88
2022-10-03T01:11:13.122Z,2.45
2022-10-03T01:14:01.465Z,1.90
2022-10-03T01:16:45.423Z,2.38
2022-10-03T01:19:45.746Z,2.30
2022-10-03T01:22:55.124Z,1.65
2022-10-03T01:25:40.154Z,1.40
2022-10-03T01:28:54.752Z,1.70
2022-10-03T01:31:34.631Z,1.60
2022-10-03T01:34:11.062Z,1.60
2022-10-03T01:36:50.322Z,1.45
2022-10-03T01:39:29.794Z,1.70
2022-10-03T01:42:09.272Z,1.90
2022-10-03T01:45:11.791Z,1.58
2022-10-03T01:47:51.335Z,1.40
2022-10-03T01:50:32.334Z,1.63
2022-10-03T01:53:07.657Z,1.63
2022-10-03T01:55:55.243Z,1.50
2022-10-03T01:58:31.201Z,1.92
2022-10-03T02:01:10.612Z,1.60
2022-10-03T02:03:50.169Z,1.77
2022-10-03T02:06:33.504Z,1.63
2022-10-03T02:09:11.838Z,1.83
2022-10-03T02:12:08.306Z,2.08
2022-10-03T02:14:50.953Z,1.65
2022-10-03T02:17:45.459Z,2.13
2022-10-03T02:20:27.459Z,1.77
2022-10-03T02:22:58.605Z,1.90
2022-10-03T02:25:43.945Z,1.88
2022-10-03T02:29:11.424Z,2.15
2022-10-03T02:32:16.378Z,2.47
2022-10-03T02:35:31.077Z,2.13
2022-10-03T02:38:18.984Z,2.20
2022-10-03T02:41:25.821Z,2.22
2022-10-03T02:45:01.038Z,2.03
2022-10-03T02:48:37.655Z,2.08
2022-10-03T02:52:01.792Z,2.17
2022-10-03T02:54:59.928Z,1.83
2022-10-03T02:58:19.507Z,1.98
2022-10-03T03:01:23.471Z,2.00
2022-10-03T03:04:44.995Z,2.35
2022-10-03T03:07:59.782Z,2.22
2022-10-03T03:10:57.996Z,1.88
2022-10-03T03:14:23.085Z,1.60
2022-10-03T03:17:08.657Z,1.85
2022-10-03T03:20:07.755Z,1.88
2022-10-03T03:22:59.884Z,1.90
2022-10-03T03:25:45.811Z,1.50
2022-10-03T03:28:33.990Z,1.63
2022-10-03T03:31:12.265Z,1.50
2022-10-03T03:33:59.270Z,1.83
2022-10-03T03:36:38.488Z,1.52
2022-10-03T03:39:34.869Z,1.60
2022-10-03T03:42:23.696Z,1.50
2022-10-03T03:45:08.841Z,1.70
2022-10-03T03:48:23.956Z,1.60
2022-10-03T03:51:21.322Z,1.60
2022-10-03T03:54:26.104Z,1.40
2022-10-03T03:57:21.797Z,1.33
2022-10-03T04:00:08.349Z,1.02
2022-10-03T04:03:16.084Z,1.20
2022-10-03T04:06:08.409Z,1.13
2022-10-03T04:09:01.088Z,0.98
2022-10-03T04:11:45.342Z,1.30
2022-10-03T04:14:51.278Z,1.10
2022-10-03T04:18:11.203Z,0.98
2022-10-03T04:21:02.296Z,1.10
2022-10-03T04:24:08.925Z,1.20
2022-10-03T04:26:59.487Z,1.10
2022-10-03T04:29:47.129Z,1.00
2022-10-03T04:33:06.814Z,1.10
2022-10-03T04:36:10.940Z,1.13
2022-10-03T04:38:54.647Z,1.15
2022-10-03T04:41:35.011Z,1.10
2022-10-03T04:44:20.723Z,1.17
2022-10-03T04:46:57.319Z,1.30
2022-10-03T04:49:36.595Z,1.15
2022-10-03T04:52:21.431Z,1.10
2022-10-03T04:55:02.355Z,1.33
2022-10-03T04:57:43.142Z,1.27
2022-10-03T05:00:25.190Z,1.10
2022-10-03T05:03:06.192Z,1.65
2022-10-03T05:05:51.372Z,1.45
2022-10-03T05:08:33.985Z,1.35
2022-10-03T05:11:23.024Z,1.40
2022-10-03T05:14:03.273Z,1.65
2022-10-03T05:16:42.857Z,1.48
2022-10-03T05:19:50.962Z,1.70
2022-10-03T05:22:45.698Z,1.50
2022-10-03T05:25:41.032Z,1.40
2022-10-03T05:28:26.557Z,1.30
2022-10-03T05:31:04.757Z,1.33
2022-10-03T05:33:52.994Z,1.92
2022-10-03T05:36:34.296Z,1.50
2022-10-03T05:39:43.709Z,1.40
2022-10-03T05:43:00.828Z,1.27
2022-10-03T05:45:48.360Z,2.10
2022-10-03T05:48:32.880Z,1.73
2022-10-03T05:51:44.629Z,1.83
2022-10-03T05:54:55.914Z,1.80
2022-10-03T05:58:15.009Z,1.73
2022-10-03T06:01:12.308Z,2.20
2022-10-03T06:04:30.165Z,1.40
2022-10-03T06:07:18.904Z,1.52
2022-10-03T06:10:41.822Z,1.93
2022-10-03T06:13:21.363Z,1.73
2022-10-03T06:15:58.882Z,1.67
2022-10-03T06:19:06.794Z,2.60
2022-10-03T06:22:43.924Z,2.42
2022-10-03T06:25:53.261Z,2.35
2022-10-03T06:29:18.741Z,2.30
2022-10-03T06:32:27.976Z,1.88
2022-10-03T06:35:57.786Z,2.17
2022-10-03T06:39:11.832Z,2.07
2022-10-03T06:42:41.308Z,2.10
2022-10-03T06:46:03.394Z,2.05
2022-10-03T06:49:28.978Z,2.55
2022-10-03T06:52:36.489Z,2.90
2022-10-03T06:55:47.714Z,2.60
2022-10-03T06:59:04.984Z,3.00
2022-10-03T07:02:42.876Z,3.30
2022-10-03T07:06:11.601Z,2.90
2022-10-03T07:09:39.805Z,3.20
2022-10-03T07:12:57.042Z,3.38
2022-10-03T07:16:26.809Z,2.70
2022-10-03T07:19:26.113Z,3.80
2022-10-03T07:22:28.762Z,3.33
2022-10-03T07:25:55.691Z,3.60
2022-10-03T07:29:09.516Z,3.80
2022-10-03T07:32:14.755Z,3.72
2022-10-03T07:35:47.885Z,3.58
2022-10-03T07:38:59.480Z,4.10
2022-10-03T07:42:09.863Z,4.10
2022-10-03T07:45:12.860Z,4.60
2022-10-03T07:48:23.529Z,4.57
2022-10-03T07:51:06.245Z,4.13
2022-10-03T07:54:27.662Z,5.07
2022-10-03T07:57:15.742Z,4.70
2022-10-03T08:00:17.217Z,4.38
2022-10-03T08:03:30.867Z,5.28
2022-10-03T08:06:26.229Z,5.15
2022-10-03T08:09:35.354Z,4.78
2022-10-03T08:13:03.369Z,5.65
2022-10-03T08:15:56.920Z,5.10
2022-10-03T08:19:11.815Z,4.55
2022-10-03T08:22:06.044Z,4.97
2022-10-03T08:25:21.702Z,4.47
2022-10-03T08:28:33.917Z,4.30
2022-10-03T08:31:38.339Z,3.70
2022-10-03T08:34:55.265Z,3.85
2022-10-03T08:38:28.012Z,3.55
2022-10-03T08:41:56.271Z,4.75
2022-10-03T08:45:05.315Z,4.18
2022-10-03T08:48:20.351Z,3.83
2022-10-03T08:51:31.902Z,4.35
2022-10-03T08:54:15.896Z,3.72
2022-10-03T08:57:30.533Z,3.45
2022-10-03T09:00:19.808Z,3.55
2022-10-03T09:03:59.414Z,3.17
2022-10-03T09:07:17.551Z,3.05
2022-10-03T09:10:36.157Z,3.33
2022-10-03T09:13:49.451Z,3.10
2022-10-03T09:16:48.062Z,2.80
2022-10-03T09:20:26.711Z,2.88
2022-10-03T09:23:24.643Z,2.70
2022-10-03T09:26:57.537Z,2.47
2022-10-03T09:30:05.519Z,2.67
2022-10-03T09:33:28.246Z,2.58
2022-10-03T09:36:54.415Z,2.30
2022-10-03T09:40:09.207Z,2.67
2022-10-03T09:43:28.250Z,2.85
2022-10-03T09:46:46.197Z,2.58
2022-10-03T09:50:07.962Z,2.30
2022-10-03T09:53:03.888Z,2.10
2022-10-03T09:55:51.911Z,2.20
2022-10-03T09:59:06.209Z,2.00
2022-10-03T10:01:42.710Z,2.30
2022-10-03T10:04:58.084Z,2.40
2022-10-03T10:08:22.710Z,1.70
2022-10-03T10:11:21.589Z,1.60
2022-10-03T10:14:40.213Z,2.05
2022-10-03T10:18:08.240Z,1.88
2022-10-03T10:21:35.532Z,1.85
2022-10-03T10:24:52.815Z,1.67
2022-10-03T10:28:17.456Z,1.40
2022-10-03T10:31:29.727Z,1.45
2022-10-03T10:35:00.354Z,1.42
2022-10-03T10:38:17.917Z,1.67
2022-10-03T10:41:48.692Z,1.23
2022-10-03T10:45:04.035Z,1.10
2022-10-03T10:48:29.607Z,1.45
2022-10-03T10:51:45.058Z,1.35
2022-10-03T10:55:04.574Z,0.95
2022-10-03T10:58:41.979Z,1.10
2022-10-03T11:01:52.502Z,1.33
2022-10-03T11:05:08.022Z,1.38
2022-10-03T11:08:43.127Z,1.30
2022-10-03T11:12:31.620Z,0.93
2022-10-03T11:16:12.006Z,1.17
2022-10-03T11:19:41.794Z,1.02
2022-10-03T11:23:05.014Z,0.95
2022-10-03T11:26:20.233Z,1.23
2022-10-03T11:30:03.253Z,0.90
2022-10-03T11:33:37.238Z,0.75
2022-10-03T11:36:53.995Z,1.13
2022-10-03T11:39:50.515Z,0.93
2022-10-03T11:42:43.421Z,0.90
2022-10-03T11:45:41.459Z,1.20
2022-10-03T11:48:38.221Z,1.10
2022-10-03T11:51:11.512Z,0.82
2022-10-03T11:53:46.912Z,0.90
2022-10-03T11:56:39.120Z,0.98
2022-10-03T11:59:34.105Z,0.90
2022-10-03T12:02:16.091Z,1.02
2022-10-03T12:04:55.953Z,0.90
2022-10-03T12:08:01.486Z,1.05
2022-10-03T12:10:47.714Z,0.90
2022-10-03T12:13:32.756Z,1.20
2022-10-03T12:16:03.798Z,0.98
2022-10-03T12:18:57.024Z,1.05
2022-10-03T12:21:41.326Z,0.90
2022-10-03T12:24:26.973Z,0.95
2022-10-03T12:27:07.230Z,0.88
2022-10-03T12:29:48.068Z,0.93
2022-10-03T12:32:27.726Z,1.02
2022-10-03T12:35:14.686Z,0.80
2022-10-03T12:38:00.130Z,0.70
2022-10-03T12:40:35.973Z,0.70
2022-10-03T12:43:30.937Z,0.90
2022-10-03T12:46:05.879Z,1.15
2022-10-03T12:48:45.891Z,1.10
2022-10-03T12:51:47.679Z,1.02
2022-10-03T12:54:40.353Z,0.88
2022-10-03T12:57:45.161Z,1.00
2022-10-03T13:00:22.492Z,0.98
2022-10-03T13:03:19.665Z,0.82
2022-10-03T13:06:39.082Z,1.08
2022-10-03T13:09:30.584Z,0.85
2022-10-03T13:12:07.265Z,0.90
2022-10-03T13:15:24.330Z,0.93
2022-10-03T13:18:05.623Z,0.65
2022-10-03T13:20:39.206Z,0.90
2022-10-03T13:23:20.248Z,0.88
2022-10-03T13:26:04.243Z,1.20
2022-10-03T13:28:56.718Z,1.20
2022-10-03T13:31:30.839Z,1.23
2022-10-03T13:34:07.553Z,0.85
2022-10-03T13:36:44.634Z,1.00
2022-10-03T13:39:19.452Z,1.15
2022-10-03T13:42:08.199Z,1.10
2022-10-03T13:44:41.032Z,0.57
2022-10-03T13:47:29.791Z,0.70
2022-10-03T13:50:03.036Z,0.88
2022-10-03T13:52:40.164Z,0.82
2022-10-03T13:55:28.532Z,0.85
2022-10-03T13:58:32.685Z,0.90
2022-10-03T14:01:34.861Z,0.82
2022-10-03T14:04:43.824Z,0.65
2022-10-03T14:07:26.291Z,0.88
2022-10-03T14:10:27.260Z,0.90
2022-10-03T14:13:19.565Z,0.82
2022-10-03T14:15:59.785Z,0.95
2022-10-03T14:18:44.719Z,0.85
2022-10-03T14:21:44.572Z,0.80
2022-10-03T14:24:48.789Z,0.80
2022-10-03T14:27:43.661Z,0.73
2022-10-03T14:30:16.763Z,0.57
2022-10-03T14:33:00.658Z,0.63
2022-10-03T14:35:39.031Z,0.75
2022-10-03T14:38:51.154Z,0.73
2022-10-03T14:41:26.541Z,0.70
2022-10-03T14:43:58.174Z,0.95
2022-10-03T14:46:31.150Z,1.20
2022-10-03T14:49:05.352Z,0.70
2022-10-03T14:51:39.734Z,0.88
2022-10-03T14:54:20.315Z,0.85
2022-10-03T14:56:52.559Z,1.02
2022-10-03T14:59:26.663Z,0.60
2022-10-03T15:01:59.629Z,0.88
2022-10-03T15:04:33.700Z,1.00
2022-10-03T15:07:03.033Z,0.80
2022-10-03T15:09:43.750Z,0.98
2022-10-03T15:12:20.635Z,0.90
2022-10-03T15:14:59.178Z,1.23
2022-10-03T15:17:33.642Z,1.10
2022-10-03T15:20:05.685Z,0.80
2022-10-03T15:22:36.572Z,1.08
2022-10-03T15:25:17.141Z,0.90
2022-10-03T15:27:51.453Z,0.88
2022-10-03T15:30:30.678Z,0.95
2022-10-03T15:33:12.277Z,0.75
2022-10-03T15:35:44.052Z,0.90
2022-10-03T15:38:16.869Z,0.85
2022-10-03T15:40:55.354Z,0.90
2022-10-03T15:43:34.418Z,0.90
2022-10-03T15:46:13.057Z,0.98
2022-10-03T15:48:47.360Z,0.80
2022-10-03T15:51:21.170Z,0.47
2022-10-03T15:53:53.196Z,0.98
2022-10-03T15:56:34.059Z,1.33
2022-10-03T15:59:11.816Z,0.73
2022-10-03T16:01:42.660Z,0.80
2022-10-03T16:04:20.412Z,0.73
2022-10-03T16:07:03.182Z,1.10
2022-10-03T16:09:46.213Z,1.10
2022-10-03T16:12:51.585Z,1.10
2022-10-03T16:15:27.517Z,1.02
2022-10-03T16:18:02.372Z,1.20
2022-10-03T16:20:38.532Z,1.10
2022-10-03T16:23:18.594Z,2.15
2022-10-03T16:25:51.996Z,2.35
2022-10-03T16:28:26.365Z,8.80
2022-10-03T16:31:01.833Z,6.63
2022-10-03T16:33:36.394Z,1.77
2022-10-03T16:36:09.308Z,2.05
2022-10-03T16:38:40.997Z,1.70
2022-10-03T16:41:25.961Z,1.80
2022-10-03T16:44:02.889Z,1.40
2022-10-03T16:46:35.882Z,1.30
2022-10-03T16:49:30.163Z,0.95
2022-10-03T16:52:04.455Z,0.80
2022-10-03T16:54:33.434Z,1.60
2022-10-03T16:57:07.494Z,1.27
2022-10-03T16:59:40.986Z,1.00
2022-10-03T17:02:16.154Z,1.13
2022-10-03T17:04:49.680Z,1.02
2022-10-03T17:07:23.696Z,0.93
2022-10-03T17:09:57.794Z,1.02
2022-10-03T17:12:32.023Z,1.00
2022-10-03T17:15:10.021Z,1.02
2022-10-03T17:17:55.073Z,0.80
2022-10-03T17:20:40.414Z,1.10
2022-10-03T17:23:22.217Z,1.17
2022-10-03T17:26:04.907Z,1.20
2022-10-03T17:28:41.399Z,1.20
2022-10-03T17:31:29.897Z,1.23
2022-10-03T17:34:14.430Z,1.70
2022-10-03T17:37:15.931Z,1.42
2022-10-03T17:39:56.351Z,1.30
2022-10-03T17:42:42.283Z,1.00
2022-10-03T17:45:33.324Z,0.98
2022-10-03T17:48:13.217Z,1.30
2022-10-03T17:50:58.411Z,1.23
2022-10-03T17:53:32.576Z,1.13
2022-10-03T17:56:13.208Z,1.05
2022-10-03T17:58:46.786Z,1.10
2022-10-03T18:01:20.169Z,1.02
2022-10-03T18:03:51.709Z,1.05
2022-10-03T18:06:48.094Z,0.95
2022-10-03T18:09:32.493Z,1.20
2022-10-03T18:12:23.166Z,1.17
2022-10-03T18:15:25.421Z,1.38
2022-10-03T18:18:22.794Z,1.35
2022-10-03T18:21:00.525Z,1.35
2022-10-03T18:23:54.665Z,1.85
2022-10-03T18:26:30.114Z,1.50
2022-10-03T18:29:22.286Z,1.50
2022-10-03T18:31:57.670Z,1.50
2022-10-03T18:34:34.706Z,1.60
2022-10-03T18:37:33.918Z,1.65
2022-10-03T18:40:14.473Z,1.50
2022-10-03T18:42:45.838Z,1.75
2022-10-03T18:45:22.964Z,1.75
2022-10-03T18:47:58.938Z,1.92
2022-10-03T18:50:33.036Z,2.08
2022-10-03T18:53:15.411Z,2.00
2022-10-03T18:55:51.000Z,1.73
2022-10-03T18:58:25.824Z,2.05
2022-10-03T19:01:03.581Z,1.95
2022-10-03T19:03:38.208Z,1.80
2022-10-03T19:06:18.537Z,2.00
2022-10-03T19:08:54.512Z,2.20
2022-10-03T19:11:30.909Z,2.33
2022-10-03T19:14:08.736Z,1.95
2022-10-03T19:17:14.968Z,2.35
2022-10-03T19:19:58.803Z,2.28
2022-10-03T19:22:33.504Z,2.90
2022-10-03T19:25:08.946Z,2.50
2022-10-03T19:27:49.523Z,2.55
2022-10-03T19:30:22.500Z,3.05
2022-10-03T19:32:58.861Z,2.97
2022-10-03T19:35:29.399Z,3.40
2022-10-03T19:38:04.950Z,3.72
2022-10-03T19:40:53.797Z,2.88
2022-10-03T19:43:40.073Z,2.88
2022-10-03T19:46:27.523Z,3.25
2022-10-03T19:49:20.896Z,2.42
2022-10-03T19:51:50.418Z,2.50
2022-10-03T19:54:34.797Z,2.28
2022-10-03T19:57:05.738Z,1.98
2022-10-03T19:59:49.571Z,2.50
2022-10-03T20:02:24.805Z,1.80
2022-10-03T20:04:56.436Z,1.63
2022-10-03T20:07:48.179Z,1.80
2022-10-03T20:10:36.688Z,2.10
2022-10-03T20:13:05.279Z,1.98
2022-10-03T20:15:45.164Z,1.95
2022-10-03T20:18:23.756Z,2.10
2022-10-03T20:20:56.285Z,2.08
2022-10-03T20:23:28.473Z,2.15
2022-10-03T20:26:03.760Z,2.20
2022-10-03T20:28:56.683Z,2.08
2022-10-03T20:31:29.498Z,2.15
2022-10-03T20:34:02.693Z,2.00
2022-10-03T20:36:34.680Z,2.17
2022-10-03T20:39:13.861Z,2.20
2022-10-03T20:41:59.481Z,2.47
2022-10-03T20:44:49.897Z,2.20
2022-10-03T20:47:38.392Z,2.80
2022-10-03T20:50:20.852Z,2.80
2022-10-03T20:52:55.647Z,2.92
2022-10-03T20:55:32.085Z,2.78
2022-10-03T20:58:18.492Z,2.45
2022-10-03T21:00:52.160Z,3.35
2022-10-03T21:03:33.984Z,2.28
2022-10-03T21:06:05.349Z,2.67
2022-10-03T21:08:38.290Z,2.75
2022-10-03T21:11:21.044Z,3.33
2022-10-03T21:13:57.602Z,2.88
2022-10-03T21:16:30.459Z,2.95
2022-10-03T21:19:03.313Z,2.88
2022-10-03T21:21:42.149Z,3.13
2022-10-03T21:24:18.434Z,2.85
2022-10-03T21:26:53.776Z,2.45
2022-10-03T21:29:31.066Z,2.90
2022-10-03T21:32:52.373Z,2.85
2022-10-03T21:35:30.808Z,2.55
2022-10-03T21:41:48.561Z,2.70
2022-10-03T21:44:38.213Z,2.50
2022-10-03T21:47:23.006Z,2.65
2022-10-03T21:49:58.175Z,2.92
2022-10-03T21:53:04.080Z,2.75
2022-10-03T21:55:54.568Z,2.60
2022-10-03T21:58:59.277Z,2.80
2022-10-03T22:01:39.082Z,2.53
2022-10-03T22:04:21.092Z,2.83
2022-10-03T22:06:58.387Z,3.03
2022-10-03T22:09:28.608Z,2.47
2022-10-03T22:12:01.497Z,2.90
2022-10-03T22:14:42.883Z,2.80
2022-10-03T22:17:23.690Z,2.63
2022-10-03T22:19:58.329Z,3.20
2022-10-03T22:22:50.782Z,3.35
2022-10-03T22:25:44.113Z,3.30
2022-10-03T22:28:23.973Z,3.72
2022-10-03T22:31:08.227Z,3.00
2022-10-03T22:33:52.287Z,2.90
2022-10-03T22:36:20.595Z,3.30
2022-10-03T22:38:52.271Z,3.20
2022-10-03T22:41:28.272Z,3.25
2022-10-03T22:43:59.679Z,2.50
2022-10-03T22:46:31.907Z,2.75
2022-10-03T22:49:09.230Z,3.45
2022-10-03T22:51:40.889Z,2.63
2022-10-03T22:54:13.617Z,2.80
2022-10-03T22:56:47.945Z,3.22
2022-10-03T22:59:21.640Z,3.22
2022-10-03T23:01:54.094Z,2.80
2022-10-03T23:04:33.233Z,3.22
2022-10-03T23:07:18.697Z,3.10
2022-10-03T23:10:01.526Z,3.47
2022-10-03T23:12:40.301Z,3.30
2022-10-03T23:15:14.973Z,3.25
2022-10-03T23:18:32.435Z,3.65
2022-10-03T23:21:08.381Z,3.25
2022-10-03T23:23:54.042Z,2.65
2022-10-03T23:27:04.749Z,3.10
2022-10-03T23:29:34.144Z,2.78
2022-10-03T23:32:05.306Z,2.50
2022-10-03T23:35:09.446Z,2.20
2022-10-03T23:37:44.100Z,2.30
2022-10-03T23:40:40.634Z,2.47
2022-10-03T23:43:32.148Z,2.90
2022-10-03T23:46:05.063Z,2.80
2022-10-03T23:48:45.130Z,3.00
2022-10-03T23:51:18.734Z,2.63
2022-10-03T23:53:51.908Z,3.22
2022-10-03T23:56:33.769Z,2.38
2022-10-03T23:59:18.866Z,2.40
